sensor_id;sensor_type;location;lat;lon;timestamp;temperature;humidity
59309;DHT22;48433;53.016;-2.260;2023-11-22T00:02:21;9.10;99.90
59309;DHT22;48433;53.016;-2.260;2023-11-22T00:04:49;9.10;99.90
59309;DHT22;48433;53.016;-2.260;2023-11-22T00:07:16;9.20;99.90
59309;DHT22;48433;53.016;-2.260;2023-11-22T00:09:43;9.20;99.90
59309;DHT22;48433;53.016;-2.260;2023-11-22T00:12:11;9.20;99.90
59309;DHT22;48433;53.016;-2.260;2023-11-22T00:14:39;9.30;99.90
59309;DHT22;48433;53.016;-2.260;2023-11-22T00:17:06;9.30;99.90
59309;DHT22;48433;53.016;-2.260;2023-11-22T00:19:34;9.30;99.90
59309;DHT22;48433;53.016;-2.260;2023-11-22T00:22:01;9.30;99.90
59309;DHT22;48433;53.016;-2.260;2023-11-22T00:24:37;9.30;99.90
59309;DHT22;48433;53.016;-2.260;2023-11-22T00:27:05;9.30;99.90
59309;DHT22;48433;53.016;-2.260;2023-11-22T00:29:32;9.40;99.90
59309;DHT22;48433;53.016;-2.260;2023-11-22T00:32:00;9.40;99.90
59309;DHT22;48433;53.016;-2.260;2023-11-22T00:34:28;9.30;99.90
59309;DHT22;48433;53.016;-2.260;2023-11-22T00:36:56;9.40;99.90
59309;DHT22;48433;53.016;-2.260;2023-11-22T00:39:23;9.40;99.90
59309;DHT22;48433;53.016;-2.260;2023-11-22T00:41:51;9.40;99.90
59309;DHT22;48433;53.016;-2.260;2023-11-22T00:44:18;9.40;99.90
59309;DHT22;48433;53.016;-2.260;2023-11-22T00:46:46;9.50;99.90
59309;DHT22;48433;53.016;-2.260;2023-11-22T00:49:15;9.50;99.90
59309;DHT22;48433;53.016;-2.260;2023-11-22T00:51:43;9.50;99.90
59309;DHT22;48433;53.016;-2.260;2023-11-22T00:54:10;9.50;99.90
59309;DHT22;48433;53.016;-2.260;2023-11-22T00:56:38;9.50;99.90
59309;DHT22;48433;53.016;-2.260;2023-11-22T00:59:06;9.50;99.90
59309;DHT22;48433;53.016;-2.260;2023-11-22T01:01:34;9.50;99.90
59309;DHT22;48433;53.016;-2.260;2023-11-22T01:04:02;9.50;99.90
59309;DHT22;48433;53.016;-2.260;2023-11-22T01:06:29;9.50;99.90
59309;DHT22;48433;53.016;-2.260;2023-11-22T01:08:59;9.50;99.90
59309;DHT22;48433;53.016;-2.260;2023-11-22T01:11:26;9.50;99.90
59309;DHT22;48433;53.016;-2.260;2023-11-22T01:13:54;9.60;99.90
59309;DHT22;48433;53.016;-2.260;2023-11-22T01:16:22;9.50;99.90
59309;DHT22;48433;53.016;-2.260;2023-11-22T01:18:50;9.50;99.90
59309;DHT22;48433;53.016;-2.260;2023-11-22T01:21:17;9.50;99.90
59309;DHT22;48433;53.016;-2.260;2023-11-22T01:23:45;9.50;99.90
59309;DHT22;48433;53.016;-2.260;2023-11-22T01:26:13;9.50;99.90
59309;DHT22;48433;53.016;-2.260;2023-11-22T01:28:41;9.50;99.90
59309;DHT22;48433;53.016;-2.260;2023-11-22T01:31:12;9.50;99.90
59309;DHT22;48433;53.016;-2.260;2023-11-22T01:33:40;9.50;99.90
59309;DHT22;48433;53.016;-2.260;2023-11-22T01:36:07;9.50;99.90
59309;DHT22;48433;53.016;-2.260;2023-11-22T01:38:35;9.50;99.90
59309;DHT22;48433;53.016;-2.260;2023-11-22T01:41:03;9.60;99.90
59309;DHT22;48433;53.016;-2.260;2023-11-22T01:43:31;9.60;99.90
59309;DHT22;48433;53.016;-2.260;2023-11-22T01:45:58;9.60;99.90
59309;DHT22;48433;53.016;-2.260;2023-11-22T01:48:26;9.60;99.90
59309;DHT22;48433;53.016;-2.260;2023-11-22T01:50:53;9.60;99.90
59309;DHT22;48433;53.016;-2.260;2023-11-22T01:53:21;9.60;99.90
59309;DHT22;48433;53.016;-2.260;2023-11-22T01:55:49;9.60;99.90
59309;DHT22;48433;53.016;-2.260;2023-11-22T01:58:17;9.60;99.90
59309;DHT22;48433;53.016;-2.260;2023-11-22T02:00:48;9.60;99.90
59309;DHT22;48433;53.016;-2.260;2023-11-22T02:03:17;9.60;99.90
59309;DHT22;48433;53.016;-2.260;2023-11-22T02:05:45;9.60;99.90
59309;DHT22;48433;53.016;-2.260;2023-11-22T02:08:13;9.60;99.90
59309;DHT22;48433;53.016;-2.260;2023-11-22T02:10:40;9.60;99.90
59309;DHT22;48433;53.016;-2.260;2023-11-22T02:13:09;9.60;99.90
59309;DHT22;48433;53.016;-2.260;2023-11-22T02:15:37;9.60;99.90
59309;DHT22;48433;53.016;-2.260;2023-11-22T02:18:04;9.60;99.90
59309;DHT22;48433;53.016;-2.260;2023-11-22T02:20:40;9.70;99.90
59309;DHT22;48433;53.016;-2.260;2023-11-22T02:23:09;9.70;99.90
59309;DHT22;48433;53.016;-2.260;2023-11-22T02:25:37;9.70;99.90
59309;DHT22;48433;53.016;-2.260;2023-11-22T02:28:04;9.70;99.90
59309;DHT22;48433;53.016;-2.260;2023-11-22T02:30:32;9.70;99.90
59309;DHT22;48433;53.016;-2.260;2023-11-22T02:32:59;9.70;99.90
59309;DHT22;48433;53.016;-2.260;2023-11-22T02:35:27;9.70;99.90
59309;DHT22;48433;53.016;-2.260;2023-11-22T02:37:54;9.70;99.90
59309;DHT22;48433;53.016;-2.260;2023-11-22T02:40:22;9.70;99.90
59309;DHT22;48433;53.016;-2.260;2023-11-22T02:42:51;9.70;99.90
59309;DHT22;48433;53.016;-2.260;2023-11-22T02:45:19;9.60;99.90
59309;DHT22;48433;53.016;-2.260;2023-11-22T02:47:47;9.70;99.90
59309;DHT22;48433;53.016;-2.260;2023-11-22T02:50:15;9.70;99.90
59309;DHT22;48433;53.016;-2.260;2023-11-22T02:52:42;9.70;99.90
59309;DHT22;48433;53.016;-2.260;2023-11-22T02:55:10;9.70;99.90
59309;DHT22;48433;53.016;-2.260;2023-11-22T02:57:38;9.70;99.90
59309;DHT22;48433;53.016;-2.260;2023-11-22T03:00:09;9.80;99.90
59309;DHT22;48433;53.016;-2.260;2023-11-22T03:02:43;9.80;99.90
59309;DHT22;48433;53.016;-2.260;2023-11-22T03:05:10;9.80;99.90
59309;DHT22;48433;53.016;-2.260;2023-11-22T03:07:41;9.80;99.90
59309;DHT22;48433;53.016;-2.260;2023-11-22T03:10:08;9.80;99.90
59309;DHT22;48433;53.016;-2.260;2023-11-22T03:12:36;9.90;99.90
59309;DHT22;48433;53.016;-2.260;2023-11-22T03:15:03;9.90;99.90
59309;DHT22;48433;53.016;-2.260;2023-11-22T03:17:32;9.90;99.90
59309;DHT22;48433;53.016;-2.260;2023-11-22T03:20:02;9.90;99.90
59309;DHT22;48433;53.016;-2.260;2023-11-22T03:22:30;9.90;99.90
59309;DHT22;48433;53.016;-2.260;2023-11-22T03:25:03;9.90;99.90
59309;DHT22;48433;53.016;-2.260;2023-11-22T03:27:31;9.90;99.90
59309;DHT22;48433;53.016;-2.260;2023-11-22T03:29:59;9.90;99.90
59309;DHT22;48433;53.016;-2.260;2023-11-22T03:32:27;9.90;99.90
59309;DHT22;48433;53.016;-2.260;2023-11-22T03:34:56;10.00;99.90
59309;DHT22;48433;53.016;-2.260;2023-11-22T03:37:25;10.00;99.90
59309;DHT22;48433;53.016;-2.260;2023-11-22T03:39:52;9.90;99.90
59309;DHT22;48433;53.016;-2.260;2023-11-22T03:42:20;9.90;99.90
59309;DHT22;48433;53.016;-2.260;2023-11-22T03:44:48;10.00;99.90
59309;DHT22;48433;53.016;-2.260;2023-11-22T03:47:15;9.90;99.90
59309;DHT22;48433;53.016;-2.260;2023-11-22T03:49:46;9.90;99.90
59309;DHT22;48433;53.016;-2.260;2023-11-22T03:52:13;10.00;99.90
59309;DHT22;48433;53.016;-2.260;2023-11-22T03:54:43;10.00;99.90
59309;DHT22;48433;53.016;-2.260;2023-11-22T03:57:11;9.90;99.90
59309;DHT22;48433;53.016;-2.260;2023-11-22T03:59:40;9.90;99.90
59309;DHT22;48433;53.016;-2.260;2023-11-22T04:02:07;9.90;99.90
59309;DHT22;48433;53.016;-2.260;2023-11-22T04:04:35;9.90;99.90
59309;DHT22;48433;53.016;-2.260;2023-11-22T04:07:03;9.80;99.90
59309;DHT22;48433;53.016;-2.260;2023-11-22T04:09:31;9.80;99.90
59309;DHT22;48433;53.016;-2.260;2023-11-22T04:11:58;9.80;99.90
59309;DHT22;48433;53.016;-2.260;2023-11-22T04:14:26;9.80;99.90
59309;DHT22;48433;53.016;-2.260;2023-11-22T04:16:55;9.80;99.90
59309;DHT22;48433;53.016;-2.260;2023-11-22T04:19:23;9.80;99.90
59309;DHT22;48433;53.016;-2.260;2023-11-22T04:21:50;9.80;99.90
59309;DHT22;48433;53.016;-2.260;2023-11-22T04:24:18;9.90;99.90
59309;DHT22;48433;53.016;-2.260;2023-11-22T04:26:45;9.90;99.90
59309;DHT22;48433;53.016;-2.260;2023-11-22T04:29:15;9.90;99.90
59309;DHT22;48433;53.016;-2.260;2023-11-22T04:31:44;9.90;99.90
59309;DHT22;48433;53.016;-2.260;2023-11-22T04:34:11;9.90;99.90
59309;DHT22;48433;53.016;-2.260;2023-11-22T04:36:38;9.90;99.90
59309;DHT22;48433;53.016;-2.260;2023-11-22T04:39:06;9.90;99.90
59309;DHT22;48433;53.016;-2.260;2023-11-22T04:41:34;9.80;99.90
59309;DHT22;48433;53.016;-2.260;2023-11-22T04:44:02;9.80;99.90
59309;DHT22;48433;53.016;-2.260;2023-11-22T04:46:30;9.70;99.90
59309;DHT22;48433;53.016;-2.260;2023-11-22T04:48:58;9.70;99.90
59309;DHT22;48433;53.016;-2.260;2023-11-22T04:51:25;9.60;99.90
59309;DHT22;48433;53.016;-2.260;2023-11-22T04:53:53;9.50;99.90
59309;DHT22;48433;53.016;-2.260;2023-11-22T04:56:21;9.50;99.90
59309;DHT22;48433;53.016;-2.260;2023-11-22T04:58:48;9.40;99.90
59309;DHT22;48433;53.016;-2.260;2023-11-22T05:01:15;9.40;99.90
59309;DHT22;48433;53.016;-2.260;2023-11-22T05:03:47;9.40;99.90
59309;DHT22;48433;53.016;-2.260;2023-11-22T05:06:14;9.40;99.90
59309;DHT22;48433;53.016;-2.260;2023-11-22T05:08:42;9.40;99.90
59309;DHT22;48433;53.016;-2.260;2023-11-22T05:11:09;9.40;99.90
59309;DHT22;48433;53.016;-2.260;2023-11-22T05:13:37;9.40;99.90
59309;DHT22;48433;53.016;-2.260;2023-11-22T05:16:04;9.50;99.90
59309;DHT22;48433;53.016;-2.260;2023-11-22T05:18:32;9.40;99.90
59309;DHT22;48433;53.016;-2.260;2023-11-22T05:20:59;9.40;99.90
59309;DHT22;48433;53.016;-2.260;2023-11-22T05:23:27;9.50;99.90
59309;DHT22;48433;53.016;-2.260;2023-11-22T05:25:54;9.50;99.90
59309;DHT22;48433;53.016;-2.260;2023-11-22T05:28:22;9.40;99.90
59309;DHT22;48433;53.016;-2.260;2023-11-22T05:30:49;9.50;99.90
59309;DHT22;48433;53.016;-2.260;2023-11-22T05:33:17;9.50;99.90
59309;DHT22;48433;53.016;-2.260;2023-11-22T05:38:12;9.50;99.90
59309;DHT22;48433;53.016;-2.260;2023-11-22T05:40:39;9.50;99.90
59309;DHT22;48433;53.016;-2.260;2023-11-22T05:43:08;9.50;99.90
59309;DHT22;48433;53.016;-2.260;2023-11-22T05:45:39;9.50;99.90
59309;DHT22;48433;53.016;-2.260;2023-11-22T05:48:06;9.50;99.90
59309;DHT22;48433;53.016;-2.260;2023-11-22T05:50:34;9.50;99.90
59309;DHT22;48433;53.016;-2.260;2023-11-22T05:53:01;9.50;99.90
59309;DHT22;48433;53.016;-2.260;2023-11-22T05:55:29;9.50;99.90
59309;DHT22;48433;53.016;-2.260;2023-11-22T05:57:56;9.50;99.90
59309;DHT22;48433;53.016;-2.260;2023-11-22T06:00:24;9.50;99.90
59309;DHT22;48433;53.016;-2.260;2023-11-22T06:02:53;9.50;99.90
59309;DHT22;48433;53.016;-2.260;2023-11-22T06:05:20;9.50;99.90
59309;DHT22;48433;53.016;-2.260;2023-11-22T06:07:48;9.60;99.90
59309;DHT22;48433;53.016;-2.260;2023-11-22T06:10:15;9.60;99.90
59309;DHT22;48433;53.016;-2.260;2023-11-22T06:12:43;9.70;99.90
59309;DHT22;48433;53.016;-2.260;2023-11-22T06:15:11;9.70;99.90
59309;DHT22;48433;53.016;-2.260;2023-11-22T06:17:39;9.80;99.90
59309;DHT22;48433;53.016;-2.260;2023-11-22T06:20:07;9.80;99.90
59309;DHT22;48433;53.016;-2.260;2023-11-22T06:22:34;9.90;99.90
59309;DHT22;48433;53.016;-2.260;2023-11-22T06:25:02;9.90;99.90
59309;DHT22;48433;53.016;-2.260;2023-11-22T06:27:29;10.00;99.90
59309;DHT22;48433;53.016;-2.260;2023-11-22T06:29:57;10.90;99.90
59309;DHT22;48433;53.016;-2.260;2023-11-22T06:32:24;10.00;99.90
59309;DHT22;48433;53.016;-2.260;2023-11-22T06:34:52;10.00;99.90
59309;DHT22;48433;53.016;-2.260;2023-11-22T06:37:19;10.00;99.90
59309;DHT22;48433;53.016;-2.260;2023-11-22T06:39:48;10.00;99.90
59309;DHT22;48433;53.016;-2.260;2023-11-22T06:42:15;10.10;99.90
59309;DHT22;48433;53.016;-2.260;2023-11-22T06:44:42;10.10;99.90
59309;DHT22;48433;53.016;-2.260;2023-11-22T06:47:10;10.10;99.90
59309;DHT22;48433;53.016;-2.260;2023-11-22T06:49:37;10.10;99.90
59309;DHT22;48433;53.016;-2.260;2023-11-22T06:52:05;10.10;99.90
59309;DHT22;48433;53.016;-2.260;2023-11-22T06:54:33;10.10;99.90
59309;DHT22;48433;53.016;-2.260;2023-11-22T06:57:00;10.10;99.90
59309;DHT22;48433;53.016;-2.260;2023-11-22T06:59:28;10.10;99.90
59309;DHT22;48433;53.016;-2.260;2023-11-22T07:01:55;10.10;99.90
59309;DHT22;48433;53.016;-2.260;2023-11-22T07:04:23;10.10;99.90
59309;DHT22;48433;53.016;-2.260;2023-11-22T07:06:50;10.10;99.90
59309;DHT22;48433;53.016;-2.260;2023-11-22T07:09:18;10.10;99.90
59309;DHT22;48433;53.016;-2.260;2023-11-22T07:11:46;10.10;99.90
59309;DHT22;48433;53.016;-2.260;2023-11-22T07:14:13;10.10;99.90
59309;DHT22;48433;53.016;-2.260;2023-11-22T07:16:41;10.10;99.90
59309;DHT22;48433;53.016;-2.260;2023-11-22T07:19:09;10.20;99.90
59309;DHT22;48433;53.016;-2.260;2023-11-22T07:21:36;10.20;99.90
59309;DHT22;48433;53.016;-2.260;2023-11-22T07:24:05;10.10;99.90
59309;DHT22;48433;53.016;-2.260;2023-11-22T07:26:36;10.20;99.90
59309;DHT22;48433;53.016;-2.260;2023-11-22T07:29:04;10.20;99.90
59309;DHT22;48433;53.016;-2.260;2023-11-22T07:31:33;10.20;99.90
59309;DHT22;48433;53.016;-2.260;2023-11-22T07:34:01;10.10;99.90
59309;DHT22;48433;53.016;-2.260;2023-11-22T07:36:32;10.10;99.90
59309;DHT22;48433;53.016;-2.260;2023-11-22T07:38:59;10.10;99.90
59309;DHT22;48433;53.016;-2.260;2023-11-22T07:41:27;10.00;99.90
59309;DHT22;48433;53.016;-2.260;2023-11-22T07:43:55;10.10;99.90
59309;DHT22;48433;53.016;-2.260;2023-11-22T07:46:22;10.00;99.90
59309;DHT22;48433;53.016;-2.260;2023-11-22T07:48:50;10.00;99.90
59309;DHT22;48433;53.016;-2.260;2023-11-22T07:51:17;10.00;99.90
59309;DHT22;48433;53.016;-2.260;2023-11-22T07:53:50;10.00;99.90
59309;DHT22;48433;53.016;-2.260;2023-11-22T07:56:23;10.00;99.90
59309;DHT22;48433;53.016;-2.260;2023-11-22T07:58:58;10.00;99.90
59309;DHT22;48433;53.016;-2.260;2023-11-22T08:01:26;10.00;99.90
59309;DHT22;48433;53.016;-2.260;2023-11-22T08:03:57;10.00;99.90
59309;DHT22;48433;53.016;-2.260;2023-11-22T08:06:24;10.10;99.90
59309;DHT22;48433;53.016;-2.260;2023-11-22T08:08:53;10.10;99.90
59309;DHT22;48433;53.016;-2.260;2023-11-22T08:11:21;10.20;99.90
59309;DHT22;48433;53.016;-2.260;2023-11-22T08:13:48;10.20;99.90
59309;DHT22;48433;53.016;-2.260;2023-11-22T08:16:16;10.30;99.90
59309;DHT22;48433;53.016;-2.260;2023-11-22T08:18:43;10.30;99.90
59309;DHT22;48433;53.016;-2.260;2023-11-22T08:21:11;8.90;99.90
59309;DHT22;48433;53.016;-2.260;2023-11-22T08:23:39;10.40;99.90
59309;DHT22;48433;53.016;-2.260;2023-11-22T08:26:06;10.40;99.90
59309;DHT22;48433;53.016;-2.260;2023-11-22T08:28:36;10.40;99.90
59309;DHT22;48433;53.016;-2.260;2023-11-22T08:31:03;10.40;99.90
59309;DHT22;48433;53.016;-2.260;2023-11-22T08:33:40;10.40;99.90
59309;DHT22;48433;53.016;-2.260;2023-11-22T08:36:08;10.50;99.90
59309;DHT22;48433;53.016;-2.260;2023-11-22T08:38:36;10.50;99.90
59309;DHT22;48433;53.016;-2.260;2023-11-22T08:41:04;10.50;99.90
59309;DHT22;48433;53.016;-2.260;2023-11-22T08:43:35;10.60;99.90
59309;DHT22;48433;53.016;-2.260;2023-11-22T08:46:03;10.70;99.90
59309;DHT22;48433;53.016;-2.260;2023-11-22T08:48:41;10.70;99.90
59309;DHT22;48433;53.016;-2.260;2023-11-22T08:51:10;10.80;99.90
59309;DHT22;48433;53.016;-2.260;2023-11-22T08:53:38;10.90;99.90
59309;DHT22;48433;53.016;-2.260;2023-11-22T08:56:05;11.00;99.90
59309;DHT22;48433;53.016;-2.260;2023-11-22T08:58:39;11.10;99.90
59309;DHT22;48433;53.016;-2.260;2023-11-22T09:01:07;11.10;99.90
59309;DHT22;48433;53.016;-2.260;2023-11-22T09:03:35;11.10;99.90
59309;DHT22;48433;53.016;-2.260;2023-11-22T09:06:03;11.10;99.90
59309;DHT22;48433;53.016;-2.260;2023-11-22T09:08:30;11.10;99.90
59309;DHT22;48433;53.016;-2.260;2023-11-22T09:10:58;11.20;99.90
59309;DHT22;48433;53.016;-2.260;2023-11-22T09:13:25;11.20;99.90
59309;DHT22;48433;53.016;-2.260;2023-11-22T09:15:53;11.20;99.90
59309;DHT22;48433;53.016;-2.260;2023-11-22T09:18:20;11.20;99.90
59309;DHT22;48433;53.016;-2.260;2023-11-22T09:20:49;11.30;99.90
59309;DHT22;48433;53.016;-2.260;2023-11-22T09:23:16;11.30;99.90
59309;DHT22;48433;53.016;-2.260;2023-11-22T09:25:44;11.40;99.90
59309;DHT22;48433;53.016;-2.260;2023-11-22T09:28:11;11.50;99.90
59309;DHT22;48433;53.016;-2.260;2023-11-22T09:30:39;11.50;99.90
59309;DHT22;48433;53.016;-2.260;2023-11-22T09:33:09;11.60;99.90
59309;DHT22;48433;53.016;-2.260;2023-11-22T09:35:38;11.60;99.90
59309;DHT22;48433;53.016;-2.260;2023-11-22T09:38:06;11.60;99.90
59309;DHT22;48433;53.016;-2.260;2023-11-22T09:40:40;11.60;99.90
59309;DHT22;48433;53.016;-2.260;2023-11-22T09:43:08;11.60;99.90
59309;DHT22;48433;53.016;-2.260;2023-11-22T09:45:35;11.50;99.90
59309;DHT22;48433;53.016;-2.260;2023-11-22T09:48:07;11.50;99.90
59309;DHT22;48433;53.016;-2.260;2023-11-22T09:53:11;11.50;99.90
59309;DHT22;48433;53.016;-2.260;2023-11-22T09:55:41;11.50;99.90
59309;DHT22;48433;53.016;-2.260;2023-11-22T09:58:11;11.50;99.90
59309;DHT22;48433;53.016;-2.260;2023-11-22T10:00:40;11.50;99.90
59309;DHT22;48433;53.016;-2.260;2023-11-22T10:03:09;11.50;99.90
59309;DHT22;48433;53.016;-2.260;2023-11-22T10:05:43;11.50;99.90
59309;DHT22;48433;53.016;-2.260;2023-11-22T10:08:11;11.50;99.90
59309;DHT22;48433;53.016;-2.260;2023-11-22T10:10:39;11.50;99.90
59309;DHT22;48433;53.016;-2.260;2023-11-22T10:13:07;11.50;99.90
59309;DHT22;48433;53.016;-2.260;2023-11-22T10:15:37;11.50;99.90
59309;DHT22;48433;53.016;-2.260;2023-11-22T10:18:04;11.50;99.90
59309;DHT22;48433;53.016;-2.260;2023-11-22T10:20:38;11.60;99.90
59309;DHT22;48433;53.016;-2.260;2023-11-22T10:23:19;11.50;99.90
59309;DHT22;48433;53.016;-2.260;2023-11-22T10:25:47;11.60;99.90
59309;DHT22;48433;53.016;-2.260;2023-11-22T10:28:17;11.50;99.90
59309;DHT22;48433;53.016;-2.260;2023-11-22T10:30:48;11.60;99.90
59309;DHT22;48433;53.016;-2.260;2023-11-22T10:33:17;11.60;99.90
59309;DHT22;48433;53.016;-2.260;2023-11-22T10:35:46;11.60;99.90
59309;DHT22;48433;53.016;-2.260;2023-11-22T10:38:14;11.60;99.90
59309;DHT22;48433;53.016;-2.260;2023-11-22T10:40:41;11.70;99.90
59309;DHT22;48433;53.016;-2.260;2023-11-22T10:43:12;11.70;99.90
59309;DHT22;48433;53.016;-2.260;2023-11-22T10:45:40;11.70;99.90
59309;DHT22;48433;53.016;-2.260;2023-11-22T10:48:13;11.70;99.90
59309;DHT22;48433;53.016;-2.260;2023-11-22T10:50:43;11.70;99.90
59309;DHT22;48433;53.016;-2.260;2023-11-22T10:53:20;11.70;99.90
59309;DHT22;48433;53.016;-2.260;2023-11-22T10:55:49;11.80;99.90
59309;DHT22;48433;53.016;-2.260;2023-11-22T10:58:23;11.80;99.90
59309;DHT22;48433;53.016;-2.260;2023-11-22T11:00:52;11.80;99.90
59309;DHT22;48433;53.016;-2.260;2023-11-22T11:03:21;11.80;99.90
59309;DHT22;48433;53.016;-2.260;2023-11-22T11:06:01;11.80;99.90
59309;DHT22;48433;53.016;-2.260;2023-11-22T11:08:31;11.80;99.90
59309;DHT22;48433;53.016;-2.260;2023-11-22T11:10:59;11.80;99.90
59309;DHT22;48433;53.016;-2.260;2023-11-22T11:13:27;11.90;99.90
59309;DHT22;48433;53.016;-2.260;2023-11-22T11:15:54;11.90;99.90
59309;DHT22;48433;53.016;-2.260;2023-11-22T11:18:23;11.90;99.90
59309;DHT22;48433;53.016;-2.260;2023-11-22T11:20:57;11.90;99.90
59309;DHT22;48433;53.016;-2.260;2023-11-22T11:23:29;11.90;99.90
59309;DHT22;48433;53.016;-2.260;2023-11-22T11:25:59;12.00;99.90
59309;DHT22;48433;53.016;-2.260;2023-11-22T11:28:45;12.00;99.90
59309;DHT22;48433;53.016;-2.260;2023-11-22T11:31:15;12.00;99.90
59309;DHT22;48433;53.016;-2.260;2023-11-22T11:36:27;12.10;99.90
59309;DHT22;48433;53.016;-2.260;2023-11-22T11:38:55;12.00;99.90
59309;DHT22;48433;53.016;-2.260;2023-11-22T11:41:27;12.10;99.90
59309;DHT22;48433;53.016;-2.260;2023-11-22T11:43:55;12.10;99.90
59309;DHT22;48433;53.016;-2.260;2023-11-22T11:46:23;12.10;99.90
59309;DHT22;48433;53.016;-2.260;2023-11-22T11:48:53;12.10;99.90
59309;DHT22;48433;53.016;-2.260;2023-11-22T11:51:24;12.10;99.90
59309;DHT22;48433;53.016;-2.260;2023-11-22T11:53:53;12.10;99.90
59309;DHT22;48433;53.016;-2.260;2023-11-22T11:56:21;12.20;99.90
59309;DHT22;48433;53.016;-2.260;2023-11-22T11:58:50;12.20;99.90
59309;DHT22;48433;53.016;-2.260;2023-11-22T12:01:18;12.10;99.90
59309;DHT22;48433;53.016;-2.260;2023-11-22T12:03:49;12.20;99.90
59309;DHT22;48433;53.016;-2.260;2023-11-22T12:06:19;12.30;99.90
59309;DHT22;48433;53.016;-2.260;2023-11-22T12:08:48;12.30;99.90
59309;DHT22;48433;53.016;-2.260;2023-11-22T12:11:15;12.30;99.90
59309;DHT22;48433;53.016;-2.260;2023-11-22T12:13:45;12.40;99.90
59309;DHT22;48433;53.016;-2.260;2023-11-22T12:16:17;12.50;99.90
59309;DHT22;48433;53.016;-2.260;2023-11-22T12:18:46;12.40;99.90
59309;DHT22;48433;53.016;-2.260;2023-11-22T12:21:18;12.50;99.90
59309;DHT22;48433;53.016;-2.260;2023-11-22T12:23:46;12.50;99.90
59309;DHT22;48433;53.016;-2.260;2023-11-22T12:26:17;12.60;99.90
59309;DHT22;48433;53.016;-2.260;2023-11-22T12:28:46;12.60;99.90
59309;DHT22;48433;53.016;-2.260;2023-11-22T12:31:27;12.70;99.90
59309;DHT22;48433;53.016;-2.260;2023-11-22T12:33:56;12.70;99.90
59309;DHT22;48433;53.016;-2.260;2023-11-22T12:36:26;12.80;99.90
59309;DHT22;48433;53.016;-2.260;2023-11-22T12:38:55;12.80;99.90
59309;DHT22;48433;53.016;-2.260;2023-11-22T12:41:22;12.90;99.90
59309;DHT22;48433;53.016;-2.260;2023-11-22T12:44:01;12.90;99.90
59309;DHT22;48433;53.016;-2.260;2023-11-22T12:46:29;13.00;99.90
59309;DHT22;48433;53.016;-2.260;2023-11-22T12:49:11;13.00;99.90
59309;DHT22;48433;53.016;-2.260;2023-11-22T12:51:39;13.00;99.90
59309;DHT22;48433;53.016;-2.260;2023-11-22T12:54:12;13.10;99.90
59309;DHT22;48433;53.016;-2.260;2023-11-22T12:56:40;13.10;99.90
59309;DHT22;48433;53.016;-2.260;2023-11-22T12:59:08;13.20;99.90
59309;DHT22;48433;53.016;-2.260;2023-11-22T13:01:35;13.20;99.90
59309;DHT22;48433;53.016;-2.260;2023-11-22T13:04:03;13.30;99.90
59309;DHT22;48433;53.016;-2.260;2023-11-22T13:06:31;13.30;99.90
59309;DHT22;48433;53.016;-2.260;2023-11-22T13:08:59;13.30;99.90
59309;DHT22;48433;53.016;-2.260;2023-11-22T13:11:26;13.30;99.90
59309;DHT22;48433;53.016;-2.260;2023-11-22T13:13:54;13.30;99.90
59309;DHT22;48433;53.016;-2.260;2023-11-22T13:16:23;13.30;99.90
59309;DHT22;48433;53.016;-2.260;2023-11-22T13:18:50;13.30;99.90
59309;DHT22;48433;53.016;-2.260;2023-11-22T13:21:17;13.30;99.90
59309;DHT22;48433;53.016;-2.260;2023-11-22T13:23:45;13.30;99.90
59309;DHT22;48433;53.016;-2.260;2023-11-22T13:26:12;13.30;99.90
59309;DHT22;48433;53.016;-2.260;2023-11-22T13:28:41;13.30;99.90
59309;DHT22;48433;53.016;-2.260;2023-11-22T13:31:09;13.30;99.90
59309;DHT22;48433;53.016;-2.260;2023-11-22T13:33:37;13.30;99.90
59309;DHT22;48433;53.016;-2.260;2023-11-22T13:36:06;13.30;99.90
59309;DHT22;48433;53.016;-2.260;2023-11-22T13:38:35;13.30;99.90
59309;DHT22;48433;53.016;-2.260;2023-11-22T13:41:04;13.30;99.90
59309;DHT22;48433;53.016;-2.260;2023-11-22T13:43:32;13.30;99.90
59309;DHT22;48433;53.016;-2.260;2023-11-22T13:46:03;13.30;99.90
59309;DHT22;48433;53.016;-2.260;2023-11-22T13:48:30;13.40;99.90
59309;DHT22;48433;53.016;-2.260;2023-11-22T13:51:00;13.40;99.90
59309;DHT22;48433;53.016;-2.260;2023-11-22T13:53:27;13.40;99.90
59309;DHT22;48433;53.016;-2.260;2023-11-22T13:55:59;13.40;99.90
59309;DHT22;48433;53.016;-2.260;2023-11-22T13:58:27;13.30;99.90
59309;DHT22;48433;53.016;-2.260;2023-11-22T14:00:55;13.40;99.90
59309;DHT22;48433;53.016;-2.260;2023-11-22T14:03:23;13.40;99.90
59309;DHT22;48433;53.016;-2.260;2023-11-22T14:05:51;13.40;99.90
59309;DHT22;48433;53.016;-2.260;2023-11-22T14:08:19;13.40;99.90
59309;DHT22;48433;53.016;-2.260;2023-11-22T14:10:47;13.40;99.90
59309;DHT22;48433;53.016;-2.260;2023-11-22T14:13:15;13.40;99.90
59309;DHT22;48433;53.016;-2.260;2023-11-22T14:15:43;13.40;99.90
59309;DHT22;48433;53.016;-2.260;2023-11-22T14:18:11;13.40;99.90
59309;DHT22;48433;53.016;-2.260;2023-11-22T14:20:38;13.50;99.90
59309;DHT22;48433;53.016;-2.260;2023-11-22T14:23:06;13.40;99.90
59309;DHT22;48433;53.016;-2.260;2023-11-22T14:25:35;13.40;99.90
59309;DHT22;48433;53.016;-2.260;2023-11-22T14:28:02;13.50;99.90
59309;DHT22;48433;53.016;-2.260;2023-11-22T14:30:30;13.50;99.90
59309;DHT22;48433;53.016;-2.260;2023-11-22T14:33:02;13.50;99.90
59309;DHT22;48433;53.016;-2.260;2023-11-22T14:35:34;13.40;99.90
59309;DHT22;48433;53.016;-2.260;2023-11-22T14:38:05;13.40;99.90
59309;DHT22;48433;53.016;-2.260;2023-11-22T14:40:34;13.40;99.90
59309;DHT22;48433;53.016;-2.260;2023-11-22T14:43:04;13.40;99.90
59309;DHT22;48433;53.016;-2.260;2023-11-22T14:45:32;13.40;99.90
59309;DHT22;48433;53.016;-2.260;2023-11-22T14:47:59;13.40;99.90
59309;DHT22;48433;53.016;-2.260;2023-11-22T14:50:29;13.40;99.90
59309;DHT22;48433;53.016;-2.260;2023-11-22T14:52:58;13.40;99.90
59309;DHT22;48433;53.016;-2.260;2023-11-22T14:55:26;13.30;99.90
59309;DHT22;48433;53.016;-2.260;2023-11-22T14:57:53;13.40;99.90
59309;DHT22;48433;53.016;-2.260;2023-11-22T15:00:24;13.30;99.90
59309;DHT22;48433;53.016;-2.260;2023-11-22T15:02:52;13.30;99.90
59309;DHT22;48433;53.016;-2.260;2023-11-22T15:05:23;13.30;99.90
59309;DHT22;48433;53.016;-2.260;2023-11-22T15:07:51;13.30;99.90
59309;DHT22;48433;53.016;-2.260;2023-11-22T15:10:22;13.20;99.90
59309;DHT22;48433;53.016;-2.260;2023-11-22T15:12:50;13.20;99.90
59309;DHT22;48433;53.016;-2.260;2023-11-22T15:15:18;13.10;99.90
59309;DHT22;48433;53.016;-2.260;2023-11-22T15:17:46;13.10;99.90
59309;DHT22;48433;53.016;-2.260;2023-11-22T15:20:14;13.10;99.90
59309;DHT22;48433;53.016;-2.260;2023-11-22T15:22:43;13.00;99.90
59309;DHT22;48433;53.016;-2.260;2023-11-22T15:25:11;13.00;99.90
59309;DHT22;48433;53.016;-2.260;2023-11-22T15:27:38;13.00;99.90
59309;DHT22;48433;53.016;-2.260;2023-11-22T15:30:07;13.00;99.90
59309;DHT22;48433;53.016;-2.260;2023-11-22T15:32:36;12.90;99.90
59309;DHT22;48433;53.016;-2.260;2023-11-22T15:35:04;12.90;99.90
59309;DHT22;48433;53.016;-2.260;2023-11-22T15:37:32;12.80;99.90
59309;DHT22;48433;53.016;-2.260;2023-11-22T15:40:00;12.80;99.90